Time;durP1;ratioP1;P1;durP2;ratioP2;P2;SDS_P1;SDS_P2;PMS_P1;PMS_P2;Temp;Humidity;BMP_temperature;BMP_pressure;BME280_temperature;BME280_humidity;BME280_pressure;Samples;Min_cycle;Max_cycle;Signal;HPM_P1;HPM_P2
2023/07/04 00:00:23;;;;;;;;;4.00;3.60;;;;;20.37;61.01;99239.69;5078349;27;45373;-59
2023/07/04 00:02:51;;;;;;;;;5.00;3.25;;;;;20.35;61.45;99241.59;5090294;27;45494;-59
2023/07/04 00:05:17;;;;;;;;;5.60;3.80;;;;;20.32;61.35;99241.84;5092389;27;45415;-59
2023/07/04 00:07:42;;;;;;;;;2.75;2.75;;;;;20.30;61.81;99238.44;5082190;27;46334;-59
2023/07/04 00:10:09;;;;;;;;;6.00;5.00;;;;;20.27;61.56;99238.69;5091174;27;45455;-59
2023/07/04 00:12:34;;;;;;;;;4.00;4.00;;;;;20.22;61.80;99239.03;5091389;27;45459;-59
2023/07/04 00:15:00;;;;;;;;;4.00;4.00;;;;;20.17;61.49;99242.06;5078069;27;45568;-59
2023/07/04 00:17:26;;;;;;;;;5.00;3.25;;;;;20.15;61.98;99235.97;5077089;27;47389;-59
2023/07/04 00:19:52;;;;;;;;;5.40;3.40;;;;;20.16;62.24;99239.50;5093422;27;45758;-59
2023/07/04 00:22:17;;;;;;;;;6.00;5.00;;;;;20.17;62.55;99231.38;5092964;27;45551;-59
2023/07/04 00:24:44;;;;;;;;;6.00;4.00;;;;;20.20;62.55;99235.63;5093652;27;45494;-59
2023/07/04 00:27:14;;;;;;;;;6.00;4.40;;;;;20.19;62.68;99241.94;5093585;27;46285;-59
2023/07/04 00:29:40;;;;;;;;;5.20;4.00;;;;;20.18;62.39;99235.75;5095070;27;45362;-59
2023/07/04 00:32:07;;;;;;;;;4.20;4.20;;;;;20.19;62.49;99241.94;5094060;27;45462;-59
2023/07/04 00:34:32;;;;;;;;;4.00;4.00;;;;;20.17;62.25;99238.53;5090014;27;45414;-59
2023/07/04 00:37:01;;;;;;;;;5.00;3.00;;;;;20.16;62.25;99237.69;5089532;27;46491;-59
2023/07/04 00:39:28;;;;;;;;;4.00;4.00;;;;;20.16;62.74;99235.00;5088151;27;45305;-59
2023/07/04 00:41:54;;;;;;;;;4.00;4.00;;;;;20.17;62.35;99234.03;5093130;27;45392;-59
2023/07/04 00:44:30;;;;;;;;;5.60;3.00;;;;;20.20;62.38;99222.25;5089750;27;45881;-59
2023/07/04 00:47:10;;;;;;;;;5.20;4.60;;;;;20.21;62.29;99230.16;5079276;27;45468;-59
2023/07/04 00:49:45;;;;;;;;;4.60;4.60;;;;;20.21;62.30;99230.16;5086349;27;45542;-59
2023/07/04 00:52:14;;;;;;;;;4.00;4.00;;;;;20.23;62.74;99226.50;5090166;27;45483;-59
2023/07/04 00:54:52;;;;;;;;;6.00;4.60;;;;;20.26;62.34;99237.00;5087271;27;45483;-58
2023/07/04 00:57:20;;;;;;;;;3.80;3.80;;;;;20.29;62.53;99226.00;5087735;27;45526;-58
2023/07/04 00:59:48;;;;;;;;;4.20;2.60;;;;;20.34;62.63;99235.41;5088910;27;45493;-58
2023/07/04 01:02:21;;;;;;;;;3.80;3.80;;;;;20.39;62.42;99232.41;5090812;27;45357;-59
2023/07/04 01:04:49;;;;;;;;;3.20;3.00;;;;;20.41;62.30;99223.28;5085784;27;45404;-59
2023/07/04 01:07:39;;;;;;;;;4.60;4.60;;;;;20.46;62.48;99221.06;5090435;27;45616;-59
2023/07/04 01:10:14;;;;;;;;;0.40;0.00;;;;;20.52;62.25;99228.63;5095147;27;45403;-59
2023/07/04 01:12:40;;;;;;;;;6.00;5.40;;;;;20.55;62.06;99230.22;5092335;27;45480;-59
2023/07/04 01:15:08;;;;;;;;;6.40;5.00;;;;;20.59;61.25;99233.50;5075260;27;45436;-59
2023/07/04 01:17:34;;;;;;;;;4.40;4.00;;;;;20.60;60.93;99233.41;5092919;27;45432;-59
2023/07/04 01:20:02;;;;;;;;;5.20;5.20;;;;;20.64;61.66;99228.63;5095538;27;45448;-58
2023/07/04 01:22:50;;;;;;;;;4.20;3.20;;;;;20.67;61.25;99231.06;5092658;27;45496;-59
2023/07/04 01:25:20;;;;;;;;;6.00;3.25;;;;;20.69;61.76;99232.66;5093532;27;45636;-58
2023/07/04 01:27:48;;;;;;;;;4.00;4.00;;;;;20.68;61.20;99233.63;5091270;27;45460;-59
2023/07/04 01:30:17;;;;;;;;;5.40;5.00;;;;;20.67;61.05;99236.41;5076674;27;45464;-60
2023/07/04 01:32:43;;;;;;;;;6.00;5.00;;;;;20.65;61.22;99249.09;5093568;27;45326;-59
2023/07/04 01:35:12;;;;;;;;;4.00;3.00;;;;;20.65;61.07;99239.22;5095145;27;45550;-60
2023/07/04 01:37:38;;;;;;;;;5.40;3.20;;;;;20.64;61.38;99233.97;5084140;27;46386;-61
2023/07/04 01:40:07;;;;;;;;;4.25;4.25;;;;;20.65;61.41;99243.72;5081109;27;45485;-60
2023/07/04 01:42:33;;;;;;;;;5.40;5.40;;;;;20.67;61.35;99241.78;5087521;27;45373;-60
2023/07/04 01:45:01;;;;;;;;;3.00;2.60;;;;;20.66;61.13;99240.94;5093419;27;45361;-59
2023/07/04 01:47:28;;;;;;;;;7.60;6.40;;;;;20.59;61.11;99238.88;5084298;27;47243;-59
2023/07/04 01:49:54;;;;;;;;;5.60;4.60;;;;;20.54;61.61;99228.50;5085481;27;45439;-59
2023/07/04 01:52:19;;;;;;;;;6.00;6.00;;;;;20.50;61.65;99230.56;5086938;27;45444;-59
2023/07/04 01:54:44;;;;;;;;;6.50;5.00;;;;;20.48;61.70;99229.00;5085836;27;45398;-60
2023/07/04 01:57:10;;;;;;;;;4.00;4.00;;;;;20.43;62.04;99220.47;5086538;27;45518;-59
2023/07/04 01:59:36;;;;;;;;;6.75;5.00;;;;;20.40;62.41;99221.56;5081190;27;45580;-59
2023/07/04 02:02:02;;;;;;;;;5.00;5.00;;;;;20.41;62.33;99225.09;5086345;27;45476;-60
2023/07/04 02:04:28;;;;;;;;;7.00;5.00;;;;;20.40;62.66;99226.06;5086156;27;45559;-58
2023/07/04 02:06:53;;;;;;;;;6.50;6.00;;;;;20.39;63.12;99225.22;5087185;27;45548;-59
2023/07/04 02:09:18;;;;;;;;;5.00;4.00;;;;;20.37;62.74;99213.78;5080351;27;45376;-59
2023/07/04 02:11:45;;;;;;;;;6.00;4.25;;;;;20.35;63.26;99210.31;5085244;27;45524;-59
2023/07/04 02:14:11;;;;;;;;;5.25;4.50;;;;;20.33;62.94;99206.06;5094524;27;45393;-59
2023/07/04 02:16:36;;;;;;;;;8.00;5.75;;;;;20.31;62.61;99211.53;5092327;27;45726;-59
2023/07/04 02:19:02;;;;;;;;;7.25;5.50;;;;;20.30;63.17;99207.16;5089420;27;45456;-59
2023/07/04 02:21:28;;;;;;;;;5.75;5.75;;;;;20.28;63.27;99203.75;5093048;27;45405;-59
2023/07/04 02:23:54;;;;;;;;;6.25;4.50;;;;;20.27;62.91;99195.84;5090615;27;45399;-59
2023/07/04 02:26:19;;;;;;;;;3.20;2.40;;;;;20.24;63.30;99199.63;5083564;27;46574;-59
2023/07/04 02:28:45;;;;;;;;;6.75;6.75;;;;;20.21;63.59;99199.84;5088782;27;45511;-60
2023/07/04 02:31:10;;;;;;;;;3.50;3.50;;;;;20.17;63.76;99195.72;5090518;27;45503;-59
2023/07/04 02:33:35;;;;;;;;;4.75;4.25;;;;;20.17;63.71;99201.06;5089837;27;45422;-59
2023/07/04 02:36:01;;;;;;;;;6.75;6.00;;;;;20.14;63.56;99203.97;5094318;27;46365;-59
2023/07/04 02:38:27;;;;;;;;;7.50;6.25;;;;;20.10;63.44;99203.38;5084962;27;45875;-60
2023/07/04 02:40:52;;;;;;;;;7.25;7.25;;;;;20.06;64.29;99209.09;5094378;27;45366;-59
2023/07/04 02:43:18;;;;;;;;;8.00;6.00;;;;;20.00;65.15;99204.19;5087109;27;45404;-59
2023/07/04 02:45:44;;;;;;;;;8.00;7.00;;;;;19.97;65.00;99205.28;5084488;27;46358;-59
2023/07/04 02:48:09;;;;;;;;;7.25;7.25;;;;;19.94;65.60;99204.69;5087102;27;45366;-59
2023/07/04 02:50:35;;;;;;;;;7.75;7.75;;;;;19.90;65.86;99204.06;5094701;27;45591;-60
2023/07/04 02:53:01;;;;;;;;;9.00;8.00;;;;;19.88;66.59;99207.81;5075585;27;45449;-59
2023/07/04 02:55:26;;;;;;;;;7.25;7.00;;;;;19.85;66.36;99217.78;5084688;27;46190;-60
2023/07/04 02:57:52;;;;;;;;;7.75;7.75;;;;;19.82;66.69;99220.69;5087859;27;45567;-59
2023/07/04 03:00:17;;;;;;;;;9.75;7.00;;;;;19.80;66.98;99219.97;5068189;28;45810;-60
2023/07/04 03:02:43;;;;;;;;;7.25;7.00;;;;;19.78;66.80;99210.34;5088456;27;45573;-59
2023/07/04 03:05:09;;;;;;;;;7.50;6.00;;;;;19.75;66.75;99207.91;5091633;27;45553;-59
2023/07/04 03:07:35;;;;;;;;;8.00;7.50;;;;;19.73;67.16;99205.34;5091237;27;45649;-59
2023/07/04 03:10:00;;;;;;;;;7.25;6.00;;;;;19.70;67.26;99212.75;5089451;27;45492;-59
2023/07/04 03:12:26;;;;;;;;;6.00;6.00;;;;;19.66;67.42;99212.13;5078475;27;45450;-59
2023/07/04 03:14:51;;;;;;;;;9.50;6.50;;;;;19.66;67.43;99211.28;5093132;27;45394;-60
2023/07/04 03:17:16;;;;;;;;;5.75;5.50;;;;;19.63;67.39;99211.50;5094094;27;45483;-60
2023/07/04 03:19:42;;;;;;;;;9.25;8.25;;;;;19.59;67.29;99210.06;5094532;27;45585;-59
2023/07/04 03:22:07;;;;;;;;;9.00;7.75;;;;;19.55;67.84;99195.19;5093701;27;45479;-59
2023/07/04 03:24:32;;;;;;;;;3.25;3.25;;;;;19.51;67.69;99197.25;5086244;27;45924;-59
2023/07/04 03:26:58;;;;;;;;;12.50;8.50;;;;;19.48;67.59;99205.47;5095269;27;45434;-59
2023/07/04 03:29:24;;;;;;;;;8.50;6.50;;;;;19.46;68.16;99208.25;5075617;28;45342;-59
2023/07/04 03:31:49;;;;;;;;;9.75;8.00;;;;;19.43;67.91;99204.97;5091554;27;45342;-59
2023/07/04 03:34:14;;;;;;;;;10.50;7.25;;;;;19.38;68.23;99208.00;5078654;27;46135;-59
2023/07/04 03:36:40;;;;;;;;;7.00;7.00;;;;;19.35;68.53;99213.56;5095817;27;45336;-59
2023/07/04 03:39:05;;;;;;;;;9.25;8.25;;;;;19.30;68.36;99217.53;5089447;27;45488;-59
2023/07/04 03:41:31;;;;;;;;;6.75;6.75;;;;;19.29;68.70;99213.16;5077614;27;46083;-60
2023/07/04 03:43:57;;;;;;;;;6.50;4.50;;;;;19.28;68.99;99216.78;5063252;28;48239;-59
2023/07/04 03:46:22;;;;;;;;;8.00;5.75;;;;;19.27;69.21;99213.25;5055268;28;45416;-59
2023/07/04 03:48:48;;;;;;;;;7.75;6.75;;;;;19.26;68.81;99214.25;5050796;28;45558;-59
2023/07/04 03:51:13;;;;;;;;;10.00;8.75;;;;;19.27;68.53;99213.25;5055233;28;45513;-59
2023/07/04 03:53:39;;;;;;;;;9.50;8.00;;;;;19.27;68.87;99217.78;5050485;28;45519;-59
2023/07/04 03:56:05;;;;;;;;;7.75;7.00;;;;;19.25;68.49;99217.91;5051608;28;45511;-59
2023/07/04 03:58:31;;;;;;;;;7.00;7.00;;;;;19.25;68.16;99222.38;5045048;28;45476;-59
2023/07/04 04:00:56;;;;;;;;;7.75;6.25;;;;;19.25;67.79;99219.72;5056068;28;45416;-59
2023/07/04 04:03:22;;;;;;;;;7.00;6.00;;;;;19.19;67.36;99226.34;5049124;28;45595;-59
2023/07/04 04:05:47;;;;;;;;;5.00;5.00;;;;;19.16;67.90;99230.09;5053568;28;45512;-59
2023/07/04 04:08:13;;;;;;;;;7.50;7.50;;;;;19.15;67.54;99231.06;5049071;28;45436;-59
2023/07/04 04:10:38;;;;;;;;;8.00;6.00;;;;;19.15;67.50;99227.53;5051318;28;45368;-59
2023/07/04 04:13:04;;;;;;;;;6.75;6.00;;;;;19.14;67.62;99236.53;5047158;28;46335;-59
2023/07/04 04:15:29;;;;;;;;;5.75;5.75;;;;;19.11;67.46;99229.56;5051712;28;45397;-59
2023/07/04 04:17:55;;;;;;;;;9.00;8.00;;;;;19.13;67.65;99241.00;5047109;28;46025;-59
2023/07/04 04:20:21;;;;;;;;;6.25;6.25;;;;;19.14;68.02;99237.38;5053287;28;45330;-60
2023/07/04 04:22:47;;;;;;;;;5.00;5.00;;;;;19.15;67.43;99230.22;5049871;28;47346;-59
2023/07/04 04:25:14;;;;;;;;;6.20;6.20;;;;;19.15;67.30;99232.88;5053618;28;45422;-59
2023/07/04 04:27:39;;;;;;;;;7.40;7.40;;;;;19.13;67.84;99232.13;5053420;28;45581;-60
2023/07/04 04:30:08;;;;;;;;;3.75;3.00;;;;;19.13;67.64;99235.66;5055287;28;45510;-59
2023/07/04 04:32:35;;;;;;;;;6.40;6.40;;;;;19.13;67.74;99230.31;5049977;28;46226;-60
2023/07/04 04:35:01;;;;;;;;;7.40;5.40;;;;;19.14;68.01;99229.34;5055078;28;45456;-59
2023/07/04 04:37:26;;;;;;;;;7.50;6.50;;;;;19.15;67.73;99231.06;5047237;28;45398;-59
2023/07/04 04:39:52;;;;;;;;;7.75;6.50;;;;;19.19;67.62;99229.03;5054218;28;45479;-59
2023/07/04 04:42:17;;;;;;;;;6.25;5.00;;;;;19.21;67.56;99231.59;5051815;28;46042;-59
2023/07/04 04:44:43;;;;;;;;;7.50;7.50;;;;;19.21;67.75;99227.09;5052419;28;45488;-59
2023/07/04 04:47:08;;;;;;;;;7.25;6.00;;;;;19.20;67.34;99229.88;5049469;28;45706;-59
2023/07/04 04:49:34;;;;;;;;;7.25;7.00;;;;;19.20;67.64;99229.88;5050707;28;45460;-59
2023/07/04 04:51:59;;;;;;;;;8.00;7.75;;;;;19.18;67.39;99230.84;5040873;28;45526;-59
2023/07/04 04:54:25;;;;;;;;;9.50;9.25;;;;;19.18;67.52;99236.19;5043314;28;45419;-60
2023/07/04 04:56:51;;;;;;;;;63.33;47.00;;;;;19.17;67.74;99231.81;5051217;28;45399;-60
2023/07/04 04:59:17;;;;;;;;;96.25;85.50;;;;;19.17;67.34;99234.47;5045358;28;45574;-60
2023/07/04 05:01:42;;;;;;;;;51.67;40.67;;;;;19.17;67.10;99230.94;5037855;28;46117;-60
2023/07/04 05:04:08;;;;;;;;;57.00;43.67;;;;;19.15;67.29;99238.22;5046796;28;45404;-60
2023/07/04 05:06:33;;;;;;;;;51.00;38.00;;;;;19.15;67.81;99236.41;5039079;28;45401;-60
2023/07/04 05:08:59;;;;;;;;;28.00;20.25;;;;;19.17;67.27;99238.97;5048668;28;45366;-60
2023/07/04 05:11:24;;;;;;;;;13.25;10.75;;;;;19.18;67.39;99238.88;5075864;27;46503;-60
2023/07/04 05:13:50;;;;;;;;;9.50;9.50;;;;;19.21;67.62;99242.28;5046096;28;45397;-59
2023/07/04 05:16:21;;;;;;;;;8.00;8.00;;;;;19.20;67.51;99240.56;5052299;28;45563;-60
2023/07/04 05:18:47;;;;;;;;;9.00;7.50;;;;;19.22;67.50;99247.50;5049073;28;45413;-60
2023/07/04 05:21:16;;;;;;;;;11.75;9.00;;;;;19.24;67.51;99250.94;5053429;28;46188;-60
2023/07/04 05:23:45;;;;;;;;;10.80;8.80;;;;;19.26;67.92;99249.00;5048469;28;45418;-60
2023/07/04 05:26:17;;;;;;;;;9.50;9.00;;;;;19.26;67.65;99248.16;5053918;28;45444;-60
2023/07/04 05:28:43;;;;;;;;;8.50;8.50;;;;;19.18;67.57;99246.03;5041051;28;45493;-60
2023/07/04 05:31:13;;;;;;;;;11.25;8.75;;;;;19.12;67.84;99244.66;5040509;28;45493;-59
2023/07/04 05:33:39;;;;;;;;;9.20;9.20;;;;;19.12;68.44;99244.66;5051158;28;45432;-60
2023/07/04 05:36:10;;;;;;;;;9.25;8.75;;;;;19.15;68.14;99246.25;5054057;28;45338;-60
2023/07/04 05:38:37;;;;;;;;;12.00;8.25;;;;;19.15;68.32;99248.91;5051139;28;45662;-59
2023/07/04 05:41:07;;;;;;;;;9.50;7.00;;;;;19.16;67.89;99247.97;5051330;28;46801;-59
2023/07/04 05:43:42;;;;;;;;;8.50;8.50;;;;;19.13;68.13;99243.69;5105052;27;45695;-59
2023/07/04 05:46:09;;;;;;;;;9.80;8.80;;;;;19.14;68.13;99240.03;5101443;27;45485;-59
2023/07/04 05:48:35;;;;;;;;;7.25;7.25;;;;;19.17;68.11;99245.16;5109667;27;45447;-59
2023/07/04 05:51:03;;;;;;;;;8.50;7.00;;;;;19.21;68.37;99245.81;5096976;27;45401;-60
2023/07/04 05:53:31;;;;;;;;;10.00;9.00;;;;;19.28;68.56;99244.38;5114382;27;46162;-67
2023/07/04 05:56:10;;;;;;;;;10.80;9.00;;;;;19.36;67.99;99249.16;5109221;27;45418;-68
2023/07/04 05:58:37;;;;;;;;;10.40;10.00;;;;;19.39;68.14;99243.59;5112868;27;45369;-60
2023/07/04 06:01:24;;;;;;;;;12.50;10.50;;;;;19.41;68.46;99245.19;5110683;27;45488;-60
2023/07/04 06:03:50;;;;;;;;;12.50;10.00;;;;;19.47;67.76;99250.06;5103186;27;46515;-60
2023/07/04 06:06:26;;;;;;;;;12.40;8.60;;;;;19.50;68.35;99246.34;5108687;27;45458;-60
2023/07/04 06:08:53;;;;;;;;;10.50;8.00;;;;;19.55;68.57;99241.53;5108557;27;45548;-60
2023/07/04 06:11:20;;;;;;;;;14.50;10.25;;;;;19.61;68.17;99243.72;5110425;27;45331;-60
2023/07/04 06:13:46;;;;;;;;;9.00;8.75;;;;;19.65;68.01;99241.66;5115270;27;46282;-60
2023/07/04 06:16:11;;;;;;;;;10.80;9.20;;;;;19.70;67.82;99251.06;5103939;27;45527;-60
2023/07/04 06:18:37;;;;;;;;;11.75;10.00;;;;;19.74;68.27;99238.31;5111820;27;45634;-60
2023/07/04 06:21:15;;;;;;;;;14.50;13.25;;;;;19.79;67.40;99245.00;5103361;27;45482;-60
2023/07/04 06:23:41;;;;;;;;;8.50;8.00;;;;;19.84;67.29;99236.63;5107422;27;46423;-60
2023/07/04 06:26:07;;;;;;;;;9.50;9.50;;;;;19.90;67.41;99238.84;5109125;27;45786;-60
2023/07/04 06:28:34;;;;;;;;;8.80;8.20;;;;;19.97;67.54;99237.41;5111741;27;45340;-59
2023/07/04 06:31:02;;;;;;;;;10.00;8.20;;;;;20.06;67.24;99236.69;5110071;27;45582;-59
2023/07/04 06:33:28;;;;;;;;;9.00;7.80;;;;;20.14;66.81;99230.75;5116678;27;46541;-59
2023/07/04 06:35:53;;;;;;;;;12.75;11.00;;;;;20.22;66.71;99239.03;5118720;27;45404;-59
2023/07/04 06:38:20;;;;;;;;;11.25;10.25;;;;;20.28;66.90;99235.00;5113471;27;46024;-59
2023/07/04 06:40:57;;;;;;;;;8.50;7.75;;;;;20.36;66.61;99228.13;5108856;27;45459;-60
2023/07/04 06:43:26;;;;;;;;;10.00;9.60;;;;;20.44;66.75;99233.72;5110258;27;45575;-60
2023/07/04 06:45:52;;;;;;;;;14.00;12.00;;;;;20.50;66.46;99233.25;5107975;27;45512;-60
2023/07/04 06:48:17;;;;;;;;;4.75;4.25;;;;;20.57;66.23;99236.31;5113595;27;45483;-60
2023/07/04 06:50:45;;;;;;;;;7.00;7.00;;;;;20.63;65.98;99238.47;5108366;27;45460;-60
2023/07/04 06:53:11;;;;;;;;;7.80;7.60;;;;;20.71;65.95;99238.75;5109713;27;46512;-61
2023/07/04 06:55:36;;;;;;;;;10.80;10.00;;;;;20.80;65.40;99235.31;5092685;27;45423;-60
2023/07/04 06:58:04;;;;;;;;;9.25;9.25;;;;;20.87;65.51;99239.22;5095692;27;45542;-60
2023/07/04 07:00:30;;;;;;;;;13.00;10.00;;;;;20.94;65.42;99239.59;5094711;27;45708;-60
2023/07/04 07:02:55;;;;;;;;;12.25;10.25;;;;;21.00;64.94;99244.44;5095173;27;45688;-61
2023/07/04 07:05:20;;;;;;;;;10.75;8.50;;;;;21.06;64.66;99238.59;5091064;27;45396;-60
2023/07/04 07:07:46;;;;;;;;;8.75;8.50;;;;;21.10;64.40;99236.50;5095529;27;45581;-61
2023/07/04 07:10:12;;;;;;;;;9.75;9.25;;;;;21.10;64.25;99237.38;5094256;27;45375;-60
2023/07/04 07:12:37;;;;;;;;;6.00;5.50;;;;;21.10;64.44;99233.81;5098213;27;46405;-58
2023/07/04 07:15:03;;;;;;;;;11.50;10.00;;;;;21.09;63.55;99241.03;5093628;27;45474;-59
2023/07/04 07:17:29;;;;;;;;;12.25;10.25;;;;;21.12;64.23;99243.44;5098253;27;45586;-59
2023/07/04 07:19:54;;;;;;;;;11.00;7.75;;;;;21.11;64.14;99240.91;5095032;27;45339;-60
2023/07/04 07:22:19;;;;;;;;;12.00;11.25;;;;;21.11;63.87;99239.06;5095539;27;46371;-61
2023/07/04 07:24:45;;;;;;;;;9.75;8.00;;;;;21.12;63.90;99238.06;5094539;27;45430;-61
2023/07/04 07:27:10;;;;;;;;;6.75;6.75;;;;;21.14;64.05;99238.78;5100127;27;45470;-60
2023/07/04 07:29:36;;;;;;;;;10.00;9.00;;;;;21.16;63.98;99244.88;5093484;27;45374;-60
2023/07/04 07:32:08;;;;;;;;;9.25;9.25;;;;;21.17;63.75;99235.88;5096371;27;45747;-60
2023/07/04 07:34:33;;;;;;;;;9.20;8.40;;;;;21.21;63.34;99234.69;5094632;27;45516;-60
2023/07/04 07:36:58;;;;;;;;;11.00;9.25;;;;;21.26;63.94;99234.31;5093782;27;45432;-60
2023/07/04 07:39:24;;;;;;;;;8.00;7.00;;;;;21.32;63.66;99232.94;5094743;27;45386;-60
2023/07/04 07:41:49;;;;;;;;;10.25;7.00;;;;;21.39;63.45;99228.78;5096863;27;45782;-62
2023/07/04 07:44:16;;;;;;;;;10.50;9.25;;;;;21.45;63.37;99231.78;5094222;27;45389;-60
2023/07/04 07:46:43;;;;;;;;;8.20;8.20;;;;;21.52;62.84;99232.13;5096740;27;45257;-60
2023/07/04 07:49:09;;;;;;;;;11.00;8.50;;;;;21.56;62.29;99223.72;5098290;27;45500;-61
2023/07/04 07:51:37;;;;;;;;;11.00;8.75;;;;;21.62;62.56;99221.50;5095027;27;46506;-60
2023/07/04 07:54:03;;;;;;;;;9.40;8.40;;;;;21.67;62.28;99225.50;5087432;27;45728;-60
2023/07/04 07:56:37;;;;;;;;;10.60;8.80;;;;;21.72;62.24;99219.75;5094614;27;45470;-60
2023/07/04 07:59:03;;;;;;;;;12.00;10.00;;;;;21.74;61.68;99220.47;5098736;27;45552;-60
2023/07/04 08:01:32;;;;;;;;;12.25;10.00;;;;;21.76;62.22;99218.50;5095158;27;46141;-60
2023/07/04 08:03:58;;;;;;;;;8.80;8.80;;;;;21.77;62.46;99210.34;5096134;27;45481;-60
2023/07/04 08:06:26;;;;;;;;;9.20;6.80;;;;;21.78;62.06;99206.66;5093554;27;45581;-60
2023/07/04 08:08:53;;;;;;;;;9.00;9.00;;;;;21.84;62.56;99208.81;5097850;27;45580;-60
2023/07/04 08:11:20;;;;;;;;;7.80;7.60;;;;;21.89;61.75;99206.59;5092819;27;46039;-60
2023/07/04 08:13:46;;;;;;;;;8.00;7.80;;;;;21.95;62.12;99200.69;5096420;27;45504;-60
2023/07/04 08:16:17;;;;;;;;;9.60;9.60;;;;;21.98;61.45;99202.25;5094674;27;45339;-60
2023/07/04 08:18:43;;;;;;;;;8.00;8.00;;;;;22.00;61.73;99197.66;5094895;27;45466;-60
2023/07/04 08:21:08;;;;;;;;;6.25;6.25;;;;;22.06;61.52;99198.97;5093479;27;45608;-60
2023/07/04 08:23:34;;;;;;;;;8.50;7.00;;;;;22.11;61.09;99194.06;5095574;27;45541;-60
2023/07/04 08:25:59;;;;;;;;;7.25;5.25;;;;;22.14;60.91;99197.31;5094428;27;46006;-60
2023/07/04 08:28:26;;;;;;;;;6.00;6.00;;;;;22.20;61.21;99201.31;5094661;27;45530;-60
2023/07/04 08:30:51;;;;;;;;;9.40;7.00;;;;;22.26;61.17;99190.88;5093882;27;45428;-61
2023/07/04 08:33:17;;;;;;;;;7.75;7.00;;;;;22.34;60.14;99189.34;5097913;27;45567;-60
2023/07/04 08:35:59;;;;;;;;;6.60;6.20;;;;;22.38;60.42;99183.59;5093603;27;45379;-60
2023/07/04 08:38:25;;;;;;;;;5.40;5.40;;;;;22.45;60.33;99183.91;5112669;27;45551;-61
2023/07/04 08:40:51;;;;;;;;;3.00;2.00;;;;;22.52;60.22;99177.00;5093368;27;46277;-61
2023/07/04 08:43:39;;;;;;;;;6.75;6.75;;;;;22.60;60.03;99178.03;5093152;27;45526;-63
2023/07/04 08:46:06;;;;;;;;;5.20;4.40;;;;;22.71;60.34;99184.28;5094366;27;45350;-61
2023/07/04 08:48:33;;;;;;;;;4.00;4.00;;;;;22.79;60.17;99169.19;5094516;27;45347;-61
2023/07/04 08:51:01;;;;;;;;;6.00;6.00;;;;;22.85;59.61;99179.41;5094199;27;46785;-61
2023/07/04 08:53:28;;;;;;;;;2.00;2.00;;;;;22.94;58.60;99175.91;5093906;27;45502;-60
2023/07/04 08:56:03;;;;;;;;;5.00;4.00;;;;;23.00;58.17;99185.22;5094268;27;45513;-60
2023/07/04 08:58:41;;;;;;;;;1.20;1.20;;;;;23.07;58.04;99185.53;5094505;27;45360;-59
2023/07/04 09:01:16;;;;;;;;;2.00;2.00;;;;;23.13;58.23;99172.38;5093779;27;46212;-60
2023/07/04 09:03:49;;;;;;;;;2.00;2.00;;;;;23.19;58.09;99173.66;5094229;27;45459;-60
2023/07/04 09:06:20;;;;;;;;;3.00;2.00;;;;;23.22;57.21;99187.69;5094294;27;45443;-60
2023/07/04 09:09:05;;;;;;;;;3.80;2.60;;;;;23.27;57.54;99173.81;5092242;27;45340;-61
2023/07/04 09:11:32;;;;;;;;;2.80;2.80;;;;;23.31;58.10;99164.44;5093734;27;45684;-60
2023/07/04 09:14:18;;;;;;;;;2.60;2.60;;;;;23.38;57.16;99164.75;5092847;27;45384;-61
2023/07/04 09:16:48;;;;;;;;;2.00;2.00;;;;;23.46;56.58;99165.72;5093347;27;45367;-58
2023/07/04 09:19:18;;;;;;;;;3.00;2.20;;;;;23.51;56.54;99163.50;5093084;27;45573;-59
2023/07/04 09:21:44;;;;;;;;;1.60;1.60;;;;;23.54;56.86;99160.53;5093069;27;46304;-59
2023/07/04 09:24:10;;;;;;;;;1.25;1.25;;;;;23.60;55.95;99170.75;5108506;27;45663;-61
2023/07/04 09:26:49;;;;;;;;;2.80;2.80;;;;;23.67;56.14;99163.78;5093633;27;45447;-60
2023/07/04 09:29:22;;;;;;;;;2.80;2.20;;;;;23.74;56.59;99161.38;5093636;27;45490;-60
2023/07/04 09:32:00;;;;;;;;;1.80;1.80;;;;;23.83;56.24;99159.63;5093380;27;46124;-60
2023/07/04 09:34:46;;;;;;;;;3.40;2.20;;;;;23.92;55.72;99158.78;5109403;27;46031;-61
2023/07/04 09:37:17;;;;;;;;;1.00;1.00;;;;;23.99;55.68;99146.44;5093515;27;45437;-60
2023/07/04 09:39:51;;;;;;;;;1.20;1.20;;;;;24.09;54.76;99151.81;5093033;27;45412;-60
2023/07/04 09:42:18;;;;;;;;;2.00;2.00;;;;;24.11;55.04;99152.50;5093641;27;46128;-60
2023/07/04 09:44:46;;;;;;;;;1.00;1.00;;;;;24.15;55.47;99151.19;5092203;27;45469;-60
2023/07/04 09:47:30;;;;;;;;;2.20;2.00;;;;;24.16;54.62;99153.75;5093735;27;45411;-60
2023/07/04 09:50:08;;;;;;;;;2.00;2.00;;;;;24.20;55.54;99140.84;5092186;27;46053;-60
2023/07/04 09:52:33;;;;;;;;;2.80;2.00;;;;;24.27;54.09;99140.16;5093216;27;45532;-60
2023/07/04 09:55:26;;;;;;;;;5.75;3.75;;;;;24.33;54.62;99150.31;5093296;27;45566;-60
2023/07/04 09:57:51;;;;;;;;;1.20;1.20;;;;;24.40;54.28;99136.25;5093010;27;45400;-60
2023/07/04 10:00:23;;;;;;;;;2.75;2.75;;;;;24.44;54.43;99156.53;5093629;27;45454;-60
2023/07/04 10:02:52;;;;;;;;;2.80;2.80;;;;;24.47;54.85;99145.44;5093223;27;47374;-60
2023/07/04 10:05:35;;;;;;;;;2.40;2.40;;;;;24.48;54.42;99139.91;5093112;27;45415;-60
2023/07/04 10:08:06;;;;;;;;;2.40;2.00;;;;;24.54;55.06;99147.41;5093476;27;45574;-60
2023/07/04 10:10:45;;;;;;;;;3.40;2.80;;;;;24.59;54.41;99147.81;5092780;27;45412;-60
2023/07/04 10:13:12;;;;;;;;;2.60;2.20;;;;;24.63;54.20;99134.88;5092979;27;45478;-60
2023/07/04 10:15:41;;;;;;;;;3.00;2.80;;;;;24.66;53.39;99148.03;5093076;27;45469;-60
2023/07/04 10:18:11;;;;;;;;;3.00;1.80;;;;;24.71;53.49;99140.34;5093317;27;45459;-59
2023/07/04 10:20:39;;;;;;;;;5.00;4.00;;;;;24.78;53.97;99127.97;5092726;27;45494;-59
2023/07/04 10:23:06;;;;;;;;;3.00;3.00;;;;;24.85;52.95;99139.00;5092183;27;45683;-60
2023/07/04 10:25:33;;;;;;;;;35.00;32.50;;;;;24.88;53.96;99122.50;5092373;27;45362;-59
2023/07/04 10:28:11;;;;;;;;;14.50;14.50;;;;;24.94;53.76;99119.25;5092677;27;45437;-59
2023/07/04 10:30:38;;;;;;;;;4.60;4.60;;;;;25.01;53.90;99131.09;5096216;27;45401;-59
2023/07/04 10:33:13;;;;;;;;;4.00;3.00;;;;;25.11;53.46;99123.81;5096232;27;46297;-59
2023/07/04 10:35:45;;;;;;;;;3.60;2.40;;;;;25.17;53.93;99125.88;5096969;27;45407;-59
2023/07/04 10:38:42;;;;;;;;;3.00;3.00;;;;;25.27;52.95;99123.97;5096559;27;45402;-60
2023/07/04 10:41:22;;;;;;;;;2.20;1.20;;;;;25.30;51.00;99130.91;5096300;27;45489;-60
2023/07/04 10:43:55;;;;;;;;;1.80;1.00;;;;;25.31;51.97;99122.63;5096407;27;45447;-59
2023/07/04 10:46:25;;;;;;;;;3.00;2.00;;;;;25.33;52.23;99115.22;5096807;27;45475;-59
2023/07/04 10:48:56;;;;;;;;;2.80;1.20;;;;;25.42;52.52;99120.72;5097021;27;45429;-60
2023/07/04 10:51:29;;;;;;;;;1.60;1.60;;;;;25.48;52.77;99107.41;5096544;27;45420;-59
2023/07/04 10:53:54;;;;;;;;;3.40;2.60;;;;;25.58;51.62;99110.91;5095856;27;46562;-59
2023/07/04 10:56:24;;;;;;;;;0.50;0.50;;;;;25.68;50.85;99113.53;5096435;27;45519;-59
2023/07/04 10:58:56;;;;;;;;;1.80;1.80;;;;;25.66;50.92;99102.03;5096427;27;45371;-61
2023/07/04 11:01:30;;;;;;;;;1.60;1.60;;;;;25.63;50.63;99115.88;5096217;27;45541;-60
2023/07/04 11:04:04;;;;;;;;;1.40;1.40;;;;;25.63;51.80;99099.66;5095626;27;46315;-60
2023/07/04 11:06:38;;;;;;;;;3.00;1.00;;;;;25.64;50.22;99112.13;5111881;27;45391;-61
2023/07/04 11:09:07;;;;;;;;;3.00;2.00;;;;;25.67;50.49;99112.66;5095341;27;45414;-61
2023/07/04 11:11:33;;;;;;;;;2.20;2.20;;;;;25.66;49.35;99097.47;5095644;27;45324;-61
2023/07/04 11:14:10;;;;;;;;;2.00;2.00;;;;;25.71;50.87;99088.91;5095567;27;45501;-59
2023/07/04 11:16:40;;;;;;;;;1.80;1.80;;;;;25.79;49.51;99101.63;5095333;27;45419;-60
2023/07/04 11:19:17;;;;;;;;;0.80;0.80;;;;;25.86;49.58;99095.41;5095077;27;45470;-61
2023/07/04 11:22:10;;;;;;;;;2.00;1.20;;;;;25.90;49.61;99088.69;5095891;27;45322;-60
2023/07/04 11:24:44;;;;;;;;;2.00;2.00;;;;;25.96;49.29;99089.94;5095352;27;45642;-60
2023/07/04 11:27:15;;;;;;;;;2.40;2.00;;;;;26.00;48.56;99096.69;5095489;27;45447;-60
2023/07/04 11:30:28;;;;;;;;;0.00;0.00;;;;;26.03;48.86;99102.63;5096176;27;45649;-60
2023/07/04 11:32:56;;;;;;;;;1.00;1.00;;;;;26.02;48.76;99082.00;5094989;27;45507;-60
2023/07/04 11:35:23;;;;;;;;;1.80;1.80;;;;;26.07;48.86;99076.13;5094987;27;46523;-60
2023/07/04 11:38:01;;;;;;;;;1.80;1.80;;;;;26.11;48.80;99076.66;5095401;27;45498;-60